Vanadium, New Mexico
Current Conditions -  °F | °C
As of 3:15 AM on Wednesday 26 Nov 2014 (Local Time) from KSVC Reporting Station
Clear Clear  
Wind Chill: 23°   Ceiling: Unl
Heat Index: 32°   Visibility: 10mi
Dew Point:   Wind: 13mph
Humidity: 35%   Direction: 350°N
Pressure: 30.34"   Gusts: NA
Location:  32.6728°N, 108.053°W
Report Text: KSVC 261015Z AUTO 35011KT 10SM CLR 00/M14 A3034 RMK AO2
Loading
Personal Weather Stations






























Interactive Weather Map New forecast layout! Learn more

10-Day Weather Forecast

Advertisements
Track Severe Weather on mobile